Time;durP1;ratioP1;P1;durP2;ratioP2;P2;SDS_P1;SDS_P2;PMS_P1;PMS_P2;Temp;Humidity;BMP_temperature;BMP_pressure;BME280_temperature;BME280_humidity;BME280_pressure;Samples;Min_cycle;Max_cycle;Signal;HPM_P1;HPM_P2
2022/08/16 00:00:26;;;;;;;12.57;11.27;;;;;;;21.11;61.30;94486.81;5041727;28;21134;-62
2022/08/16 00:02:53;;;;;;;13.18;12.00;;;;;;;20.99;61.49;94489.47;5039051;28;20247;-62
2022/08/16 00:05:21;;;;;;;13.45;12.25;;;;;;;21.05;61.53;94483.19;5045947;28;20231;-62
2022/08/16 00:07:46;;;;;;;14.00;12.75;;;;;;;21.07;61.46;94489.13;5029720;28;20202;-62
2022/08/16 00:10:15;;;;;;;13.68;12.23;;;;;;;21.11;61.22;94482.28;5044314;28;20230;-61
2022/08/16 00:12:41;;;;;;;13.02;11.82;;;;;;;20.92;61.35;94486.06;5045555;28;20355;-60
2022/08/16 00:15:31;;;;;;;12.88;11.50;;;;;;;20.82;61.86;94492.00;5049809;28;20355;-62
2022/08/16 00:17:57;;;;;;;14.18;12.20;;;;;;;20.85;62.15;94488.03;5046755;28;20601;-62
2022/08/16 00:20:23;;;;;;;13.10;11.90;;;;;;;20.84;62.30;94499.78;5042099;28;20217;-61
2022/08/16 00:22:49;;;;;;;13.77;12.38;;;;;;;20.78;62.15;94492.66;5045690;28;20202;-61
2022/08/16 00:25:16;;;;;;;13.50;12.25;;;;;;;20.74;61.99;94489.63;5041239;28;20354;-61
2022/08/16 00:27:43;;;;;;;13.18;11.85;;;;;;;20.80;61.91;94493.25;5045925;28;20221;-61
2022/08/16 00:30:11;;;;;;;13.80;12.40;;;;;;;20.80;61.95;94496.75;5050944;28;20213;-62
2022/08/16 00:32:40;;;;;;;13.25;11.90;;;;;;;20.69;61.94;94481.50;5050145;28;20691;-62
2022/08/16 00:35:07;;;;;;;13.55;12.45;;;;;;;20.63;61.63;94499.22;5049496;28;20204;-61
2022/08/16 00:37:33;;;;;;;11.88;10.88;;;;;;;20.74;60.52;94504.84;5048336;28;20214;-61
2022/08/16 00:39:58;;;;;;;11.85;10.85;;;;;;;20.74;60.41;94496.81;5043961;28;20240;-62
2022/08/16 00:42:26;;;;;;;12.70;11.50;;;;;;;20.79;59.26;94491.63;5043410;28;20218;-61
2022/08/16 00:45:06;;;;;;;12.88;11.70;;;;;;;20.56;60.25;94493.19;5040632;28;20233;-61
2022/08/16 00:47:33;;;;;;;12.43;11.32;;;;;;;20.66;59.61;94495.28;5044705;28;20228;-61
2022/08/16 00:49:59;;;;;;;11.48;10.45;;;;;;;20.62;59.17;94496.78;5046292;28;20202;-61
2022/08/16 00:52:24;;;;;;;12.65;11.48;;;;;;;20.65;58.74;94502.50;5045651;28;20221;-62
2022/08/16 00:54:50;;;;;;;12.95;11.77;;;;;;;20.68;58.42;94518.06;5041346;28;20320;-62
2022/08/16 00:57:15;;;;;;;10.57;9.65;;;;;;;20.72;57.63;94517.63;5039917;28;20593;-62
2022/08/16 00:59:41;;;;;;;11.52;10.50;;;;;;;20.64;57.81;94511.56;5039403;28;20234;-62
2022/08/16 01:02:09;;;;;;;12.05;10.95;;;;;;;20.75;57.72;94514.50;5037314;28;20193;-62
2022/08/16 01:04:36;;;;;;;11.77;10.63;;;;;;;20.79;58.19;94518.34;5038272;28;20226;-62
2022/08/16 01:07:04;;;;;;;12.75;11.40;;;;;;;20.61;58.85;94513.84;5050474;28;20274;-62
2022/08/16 01:09:31;;;;;;;11.95;10.88;;;;;;;20.58;58.87;94517.81;5043049;28;20275;-62
2022/08/16 01:11:58;;;;;;;12.63;11.43;;;;;;;20.69;58.89;94519.72;5049243;28;20225;-62
2022/08/16 01:14:29;;;;;;;11.48;10.50;;;;;;;20.58;59.36;94519.66;5040906;28;20243;-62
2022/08/16 01:16:55;;;;;;;13.23;12.13;;;;;;;20.66;59.46;94519.31;5042660;28;20296;-62
2022/08/16 01:19:36;;;;;;;12.25;11.25;;;;;;;20.43;59.85;94523.50;5041679;28;20222;-62
2022/08/16 01:22:08;;;;;;;12.75;11.68;;;;;;;20.47;60.29;94527.38;5046450;28;20220;-62
2022/08/16 01:24:47;;;;;;;13.32;12.02;;;;;;;20.47;60.50;94532.72;5048403;28;20229;-61
2022/08/16 01:27:18;;;;;;;12.25;11.35;;;;;;;20.54;60.43;94534.50;5051404;28;20220;-61
2022/08/16 01:30:09;;;;;;;13.68;12.27;;;;;;;20.53;60.84;94535.50;5044349;28;20386;-61
2022/08/16 01:32:37;;;;;;;13.60;12.25;;;;;;;20.50;60.85;94534.09;5033437;28;20251;-62
2022/08/16 01:35:13;;;;;;;14.80;13.35;;;;;;;20.53;61.25;94531.00;5047136;28;20213;-62
2022/08/16 01:37:42;;;;;;;13.23;12.02;;;;;;;20.53;61.43;94531.00;5038406;28;20360;-61
2022/08/16 01:40:09;;;;;;;14.23;12.82;;;;;;;20.58;61.32;94522.31;5042790;28;20237;-60
2022/08/16 01:42:34;;;;;;;13.45;12.02;;;;;;;20.55;61.24;94534.25;5048665;28;20229;-62
2022/08/16 01:45:00;;;;;;;13.20;12.10;;;;;;;20.54;61.38;94529.97;5046180;28;20305;-62
2022/08/16 01:47:27;;;;;;;13.68;12.23;;;;;;;20.55;61.35;94536.13;5047648;28;20205;-61
2022/08/16 01:49:52;;;;;;;13.48;12.15;;;;;;;20.63;61.35;94541.97;5038404;28;20209;-61
2022/08/16 01:52:18;;;;;;;13.55;12.35;;;;;;;20.69;61.35;94541.09;5047054;28;20218;-63
2022/08/16 01:54:44;;;;;;;13.68;12.38;;;;;;;20.63;61.54;94543.81;5050876;28;20233;-62
2022/08/16 01:57:09;;;;;;;14.20;12.98;;;;;;;20.49;62.18;94543.16;5040753;28;20240;-62
2022/08/16 01:59:36;;;;;;;12.50;11.40;;;;;;;20.43;62.41;94538.72;5053684;28;20228;-62
2022/08/16 02:02:03;;;;;;;13.20;12.00;;;;;;;20.42;62.82;94535.25;5055328;28;20204;-63
2022/08/16 02:04:29;;;;;;;13.43;12.15;;;;;;;20.51;62.39;94533.06;5050887;28;20217;-62
2022/08/16 02:06:56;;;;;;;13.30;12.20;;;;;;;20.42;62.81;94545.09;5042891;28;20226;-61
2022/08/16 02:09:23;;;;;;;12.88;11.85;;;;;;;20.47;62.76;94546.06;5042701;28;20279;-62
2022/08/16 02:11:53;;;;;;;13.68;12.48;;;;;;;20.67;61.84;94561.03;5049855;28;20938;-62
2022/08/16 02:14:21;;;;;;;13.82;12.52;;;;;;;20.59;62.12;94556.03;5040041;28;20201;-62
2022/08/16 02:16:48;;;;;;;14.25;13.05;;;;;;;20.67;61.94;94555.72;5047099;28;20197;-61
2022/08/16 02:19:16;;;;;;;13.50;12.40;;;;;;;20.81;61.20;94567.03;5050447;28;20235;-62
2022/08/16 02:21:44;;;;;;;14.20;12.90;;;;;;;20.74;61.73;94576.97;5044453;28;20363;-62
2022/08/16 02:24:10;;;;;;;13.75;12.65;;;;;;;20.74;61.91;94595.69;5048992;28;20619;-62
2022/08/16 02:26:35;;;;;;;14.45;13.15;;;;;;;20.67;62.17;94596.59;5038448;28;20226;-62
2022/08/16 02:29:01;;;;;;;13.82;12.55;;;;;;;20.61;62.39;94618.03;5043425;28;20201;-62
2022/08/16 02:31:26;;;;;;;13.50;12.10;;;;;;;20.67;62.46;94617.97;5042183;28;20473;-61
2022/08/16 02:33:52;;;;;;;12.70;11.70;;;;;;;20.54;62.25;94607.44;5055991;28;20236;-61
2022/08/16 02:36:18;;;;;;;13.82;12.52;;;;;;;20.44;62.35;94618.59;5049517;28;20359;-61
2022/08/16 02:38:44;;;;;;;13.80;12.57;;;;;;;20.61;61.77;94618.88;5042788;28;20228;-61
2022/08/16 02:41:09;;;;;;;13.98;12.68;;;;;;;20.72;61.08;94614.63;5047922;28;20200;-61
2022/08/16 02:43:35;;;;;;;13.90;12.60;;;;;;;20.76;60.67;94617.66;5044685;28;20316;-61
2022/08/16 02:46:03;;;;;;;14.02;12.73;;;;;;;20.67;61.55;94609.13;5039935;28;20583;-61
2022/08/16 02:48:29;;;;;;;15.95;14.45;;;;;;;20.62;63.68;94607.13;5039988;28;20291;-61
2022/08/16 02:50:56;;;;;;;14.18;12.95;;;;;;;20.66;63.91;94597.63;5049632;28;20229;-62
2022/08/16 02:53:22;;;;;;;15.52;14.10;;;;;;;20.64;63.74;94606.91;5049799;28;20202;-63
2022/08/16 02:55:48;;;;;;;15.40;14.20;;;;;;;20.57;64.25;94598.16;5047739;28;20619;-62
2022/08/16 02:58:13;;;;;;;15.25;13.75;;;;;;;20.52;64.57;94603.31;5044215;28;20229;-62
2022/08/16 03:00:39;;;;;;;15.82;14.45;;;;;;;20.36;66.09;94599.38;5036713;28;20302;-62
2022/08/16 03:03:05;;;;;;;15.13;13.55;;;;;;;20.40;65.77;94600.59;5040731;28;20214;-62
2022/08/16 03:05:31;;;;;;;14.85;13.65;;;;;;;20.26;67.72;94592.72;5047857;28;20201;-62
2022/08/16 03:07:57;;;;;;;17.17;15.45;;;;;;;20.17;67.86;94591.38;5050270;28;20259;-62
2022/08/16 03:10:22;;;;;;;15.50;14.20;;;;;;;20.16;69.74;94595.09;5055289;28;20244;-62
2022/08/16 03:12:49;;;;;;;16.20;14.73;;;;;;;19.96;70.86;94579.25;5049873;28;20307;-62
2022/08/16 03:15:17;;;;;;;15.88;14.48;;;;;;;19.91;72.13;94573.75;5046333;28;20229;-64
2022/08/16 03:17:43;;;;;;;16.83;15.35;;;;;;;19.91;71.98;94570.28;5041895;28;20229;-62
2022/08/16 03:20:13;;;;;;;17.20;15.57;;;;;;;19.87;71.53;94575.25;5040837;28;20210;-62
2022/08/16 03:22:38;;;;;;;16.45;15.05;;;;;;;19.93;72.32;94566.34;5045664;28;20274;-62
2022/08/16 03:25:08;;;;;;;16.83;15.38;;;;;;;19.94;73.25;94564.50;5043773;28;20256;-62
2022/08/16 03:27:37;;;;;;;16.13;14.57;;;;;;;19.89;72.91;94562.53;5046256;28;20243;-62
2022/08/16 03:30:08;;;;;;;15.30;13.90;;;;;;;19.98;71.41;94571.84;5052146;28;20225;-62
2022/08/16 03:32:33;;;;;;;16.15;14.65;;;;;;;20.00;70.53;94569.78;5048783;28;20243;-62
2022/08/16 03:34:58;;;;;;;14.25;13.15;;;;;;;20.02;70.19;94567.72;5044351;28;20206;-62
2022/08/16 03:37:24;;;;;;;15.13;13.80;;;;;;;20.01;69.68;94570.59;5046885;28;20222;-63
2022/08/16 03:39:49;;;;;;;15.82;14.52;;;;;;;20.05;68.50;94567.28;5040199;28;20256;-63
2022/08/16 03:42:15;;;;;;;14.80;13.57;;;;;;;19.98;69.31;94581.72;5047911;28;20233;-63
2022/08/16 03:44:42;;;;;;;16.08;14.52;;;;;;;19.96;69.19;94578.44;5054688;28;20222;-62
2022/08/16 03:47:08;;;;;;;14.68;13.48;;;;;;;19.94;68.61;94584.03;5046678;28;20217;-62
2022/08/16 03:49:34;;;;;;;14.90;13.70;;;;;;;19.89;67.89;94583.88;5048409;28;20237;-63
2022/08/16 03:52:00;;;;;;;15.10;13.60;;;;;;;19.93;68.39;94582.38;5040351;28;20214;-62
2022/08/16 03:54:26;;;;;;;15.10;13.80;;;;;;;19.98;68.18;94571.84;5039334;28;20230;-61
2022/08/16 03:56:51;;;;;;;14.48;13.02;;;;;;;20.04;68.68;94575.50;5041221;28;20222;-61
2022/08/16 03:59:17;;;;;;;14.30;13.05;;;;;;;20.10;68.35;94579.13;5041994;28;20218;-62
2022/08/16 04:01:42;;;;;;;14.60;13.40;;;;;;;20.10;67.90;94565.78;5046798;28;20205;-61
2022/08/16 04:04:08;;;;;;;14.73;13.25;;;;;;;20.21;67.25;94565.88;5051973;28;20225;-62
2022/08/16 04:06:33;;;;;;;15.48;14.23;;;;;;;20.27;68.27;94564.16;5047742;28;20222;-63
2022/08/16 04:08:58;;;;;;;14.98;13.52;;;;;;;20.24;67.93;94569.97;5040811;28;20213;-62
2022/08/16 04:11:24;;;;;;;15.68;14.27;;;;;;;20.26;68.49;94579.38;5040659;28;20208;-62
2022/08/16 04:13:50;;;;;;;15.40;14.10;;;;;;;20.29;67.94;94567.44;5049207;28;20205;-62
2022/08/16 04:16:16;;;;;;;15.73;14.43;;;;;;;20.31;68.77;94569.88;5046557;28;20224;-62
2022/08/16 04:18:42;;;;;;;17.20;15.80;;;;;;;20.25;69.29;94564.38;5049017;28;20587;-62
2022/08/16 04:21:08;;;;;;;15.43;14.23;;;;;;;20.22;69.75;94569.34;5046937;28;20209;-62
2022/08/16 04:23:36;;;;;;;16.40;15.10;;;;;;;20.12;71.05;94567.19;5038783;28;20243;-61
2022/08/16 04:26:02;;;;;;;16.65;15.30;;;;;;;20.05;72.11;94564.59;5039648;28;20201;-61
2022/08/16 04:28:28;;;;;;;18.02;16.52;;;;;;;20.03;72.11;94561.34;5043771;28;20229;-62
2022/08/16 04:30:54;;;;;;;18.23;16.50;;;;;;;20.01;72.39;94570.59;5044209;28;20237;-61
2022/08/16 04:33:19;;;;;;;19.35;17.65;;;;;;;19.95;72.78;94572.31;5036135;28;20225;-62
2022/08/16 04:35:45;;;;;;;19.13;17.52;;;;;;;20.06;72.58;94581.44;5050590;28;20208;-60
2022/08/16 04:38:10;;;;;;;17.25;15.75;;;;;;;20.19;71.90;94577.81;5049928;28;20538;-60
2022/08/16 04:40:36;;;;;;;18.90;17.13;;;;;;;19.99;72.49;94580.66;5048180;28;20214;-60
2022/08/16 04:43:01;;;;;;;18.58;16.98;;;;;;;19.96;73.60;94567.78;5040344;28;20225;-61
2022/08/16 04:45:27;;;;;;;18.88;17.27;;;;;;;19.88;73.86;94570.72;5046338;28;20218;-60
2022/08/16 04:47:52;;;;;;;18.27;16.67;;;;;;;19.93;74.02;94566.34;5043392;28;20269;-61
2022/08/16 04:50:23;;;;;;;19.15;17.45;;;;;;;19.95;73.94;94558.16;5042086;28;20198;-61
2022/08/16 04:52:50;;;;;;;20.50;18.77;;;;;;;20.01;73.91;94560.75;5041001;28;20206;-61
2022/08/16 04:55:23;;;;;;;20.08;18.15;;;;;;;20.02;73.04;94566.88;5037530;28;20233;-60
2022/08/16 04:57:51;;;;;;;18.00;16.30;;;;;;;20.09;71.84;94567.63;5034276;28;20228;-61
2022/08/16 05:00:20;;;;;;;18.15;16.50;;;;;;;19.99;72.17;94578.84;5032159;28;20305;-61
2022/08/16 05:02:48;;;;;;;18.50;16.77;;;;;;;20.06;71.77;94576.09;5036979;28;20274;-62
2022/08/16 05:05:13;;;;;;;17.10;15.60;;;;;;;20.18;70.59;94579.66;5040547;28;20205;-61
2022/08/16 05:07:39;;;;;;;18.17;16.58;;;;;;;20.08;70.66;94592.72;5038607;28;20239;-62
2022/08/16 05:10:08;;;;;;;17.80;16.40;;;;;;;20.10;70.27;94595.97;5037801;28;20220;-61
2022/08/16 05:12:34;;;;;;;17.85;16.33;;;;;;;20.11;69.72;94599.47;5043648;28;20229;-62
2022/08/16 05:15:00;;;;;;;17.73;16.20;;;;;;;20.13;69.54;94597.34;5032807;28;20218;-61
2022/08/16 05:17:25;;;;;;;17.98;16.50;;;;;;;20.26;68.81;94586.53;5030512;28;20216;-61
2022/08/16 05:19:51;;;;;;;17.60;15.95;;;;;;;19.75;70.26;94587.66;5032870;28;20206;-61
2022/08/16 05:22:17;;;;;;;17.38;15.68;;;;;;;20.13;68.76;94595.53;5030622;28;20222;-62
2022/08/16 05:24:42;;;;;;;17.25;15.65;;;;;;;20.20;68.52;94600.78;5039035;28;20266;-62
2022/08/16 05:27:08;;;;;;;16.92;15.52;;;;;;;20.22;68.70;94598.72;5038376;28;20284;-61
2022/08/16 05:29:34;;;;;;;17.33;16.02;;;;;;;20.20;69.17;94609.59;5035636;28;20225;-62
2022/08/16 05:32:00;;;;;;;18.63;16.90;;;;;;;20.31;68.48;94600.03;5031743;28;20276;-63
2022/08/16 05:34:26;;;;;;;18.45;16.77;;;;;;;20.17;69.27;94596.72;5033841;28;20308;-62
2022/08/16 05:36:56;;;;;;;18.75;16.83;;;;;;;20.36;68.11;94597.53;5035775;28;20225;-61
2022/08/16 05:39:22;;;;;;;19.17;17.58;;;;;;;20.26;69.20;94590.06;5033953;28;20327;-61
2022/08/16 05:41:49;;;;;;;19.15;17.55;;;;;;;20.18;70.16;94593.03;5031977;28;20233;-60
2022/08/16 05:44:16;;;;;;;18.85;17.25;;;;;;;20.36;70.06;94584.19;5034901;28;20209;-60
2022/08/16 05:46:43;;;;;;;19.90;18.13;;;;;;;20.65;68.77;94601.34;5036062;28;20741;-60
2022/08/16 05:49:11;;;;;;;19.67;17.95;;;;;;;20.76;68.31;94598.94;5036861;28;20252;-62
2022/08/16 05:51:37;;;;;;;19.17;17.35;;;;;;;20.83;67.11;94599.69;5029891;28;20493;-62
2022/08/16 05:54:03;;;;;;;19.83;18.23;;;;;;;20.86;67.07;94596.56;5031880;28;20217;-63
2022/08/16 05:56:28;;;;;;;20.00;17.98;;;;;;;20.96;66.81;94594.16;5029311;28;20206;-63
2022/08/16 05:58:53;;;;;;;18.98;17.17;;;;;;;21.03;66.66;94591.38;5030706;28;20249;-63
2022/08/16 06:01:19;;;;;;;19.13;17.17;;;;;;;21.10;66.14;94590.25;5028748;28;20226;-63
2022/08/16 06:03:44;;;;;;;22.52;17.55;;;;;;;21.14;65.98;94579.91;5031729;28;20230;-64
2022/08/16 06:06:10;;;;;;;18.92;17.08;;;;;;;21.06;66.20;94597.13;5036061;28;20225;-63
2022/08/16 06:08:35;;;;;;;18.40;16.63;;;;;;;21.17;65.75;94598.19;5030466;28;20229;-64
2022/08/16 06:11:01;;;;;;;16.60;15.10;;;;;;;21.34;64.93;94599.16;5036644;28;20233;-64
2022/08/16 06:13:26;;;;;;;19.95;17.52;;;;;;;21.31;64.05;94602.31;5035254;28;20254;-63
2022/08/16 06:15:53;;;;;;;18.50;16.90;;;;;;;21.17;64.69;94597.34;5035377;28;20244;-62
2022/08/16 06:18:18;;;;;;;18.08;16.23;;;;;;;21.33;64.00;94580.66;5035525;28;20221;-62
2022/08/16 06:20:44;;;;;;;19.02;17.42;;;;;;;21.44;64.09;94589.78;5038640;28;20286;-62
2022/08/16 06:23:09;;;;;;;18.40;16.55;;;;;;;21.32;64.07;94587.06;5039727;28;20254;-62
2022/08/16 06:25:35;;;;;;;18.25;16.65;;;;;;;21.35;65.03;94591.94;5033673;28;20244;-63
2022/08/16 06:28:00;;;;;;;18.10;16.50;;;;;;;21.14;65.14;94593.28;5034336;28;20720;-62
2022/08/16 06:30:26;;;;;;;18.75;17.05;;;;;;;21.15;65.22;94587.72;5028947;28;20317;-62
2022/08/16 06:32:51;;;;;;;18.65;17.00;;;;;;;21.39;63.59;94593.16;5035597;28;20424;-62
2022/08/16 06:35:17;;;;;;;17.50;15.90;;;;;;;21.56;63.25;94579.94;5031872;28;20201;-62
2022/08/16 06:37:42;;;;;;;18.17;16.58;;;;;;;21.63;63.35;94577.97;5032500;28;20210;-62
2022/08/16 06:40:10;;;;;;;18.23;16.55;;;;;;;21.59;62.85;94571.44;5033212;28;20269;-62
2022/08/16 06:42:35;;;;;;;16.08;14.60;;;;;;;21.55;62.92;94583.66;5041341;28;20287;-61
2022/08/16 06:45:01;;;;;;;16.98;15.52;;;;;;;21.68;62.23;94579.94;5032594;28;20237;-64
2022/08/16 06:47:26;;;;;;;15.38;14.07;;;;;;;21.80;61.57;94583.44;5041946;28;20209;-62
2022/08/16 06:49:52;;;;;;;15.80;14.32;;;;;;;21.82;61.54;94576.00;5039513;28;20203;-63
2022/08/16 06:52:17;;;;;;;17.75;16.00;;;;;;;21.68;62.96;94575.44;5033450;28;20229;-63
2022/08/16 06:54:43;;;;;;;16.48;15.05;;;;;;;21.83;62.69;94585.66;5037584;28;20234;-61
2022/08/16 06:57:09;;;;;;;17.10;15.60;;;;;;;21.94;62.22;94576.81;5039211;28;20222;-62
2022/08/16 06:59:36;;;;;;;16.30;14.90;;;;;;;21.92;61.53;94575.41;5046865;28;20229;-61
2022/08/16 07:02:02;;;;;;;14.55;13.25;;;;;;;21.91;60.34;94566.56;5035866;28;20670;-62
2022/08/16 07:04:27;;;;;;;14.63;13.27;;;;;;;22.05;60.26;94563.66;5034163;28;20222;-62
2022/08/16 07:06:53;;;;;;;17.52;16.13;;;;;;;21.93;61.61;94551.09;5038504;28;20686;-65
2022/08/16 07:09:19;;;;;;;19.23;15.38;;;;;;;21.72;61.43;94557.03;5037283;28;20241;-63
2022/08/16 07:11:45;;;;;;;16.70;15.10;;;;;;;22.01;62.84;94561.44;5037249;28;20233;-63
2022/08/16 07:14:11;;;;;;;16.38;14.73;;;;;;;21.96;61.54;94561.34;5037408;28;20300;-63
2022/08/16 07:16:36;;;;;;;16.45;14.75;;;;;;;22.03;61.58;94555.88;5042295;28;20232;-65
2022/08/16 07:19:02;;;;;;;18.58;16.80;;;;;;;22.20;61.38;94556.81;5036970;28;20218;-64
2022/08/16 07:21:28;;;;;;;16.67;15.10;;;;;;;22.46;60.56;94563.53;5033082;28;20226;-63
2022/08/16 07:23:53;;;;;;;16.65;15.10;;;;;;;22.52;60.34;94558.25;5038198;28;20229;-63
2022/08/16 07:26:22;;;;;;;17.10;15.55;;;;;;;22.56;60.82;94546.84;5035303;28;20197;-61
2022/08/16 07:28:48;;;;;;;16.42;14.77;;;;;;;22.68;59.64;94541.44;5045397;28;20209;-61
2022/08/16 07:31:15;;;;;;;16.52;14.93;;;;;;;22.77;59.88;94550.72;5040959;28;20222;-62
2022/08/16 07:33:43;;;;;;;16.77;14.60;;;;;;;22.73;58.99;94546.91;5040473;28;20229;-61
2022/08/16 07:36:10;;;;;;;16.60;14.98;;;;;;;22.96;58.21;94542.47;5037641;28;20229;-63
2022/08/16 07:38:35;;;;;;;14.95;13.60;;;;;;;22.89;58.22;94546.13;5034977;28;20217;-62
2022/08/16 07:41:01;;;;;;;15.85;14.38;;;;;;;22.92;58.75;94547.53;5039682;28;20217;-63
2022/08/16 07:43:27;;;;;;;15.00;13.70;;;;;;;22.93;58.80;94543.78;5035582;28;20234;-63
2022/08/16 07:45:53;;;;;;;15.23;13.73;;;;;;;22.99;59.04;94548.22;5036816;28;20367;-63
2022/08/16 07:48:20;;;;;;;15.02;13.52;;;;;;;23.00;58.49;94549.84;5034545;28;20226;-63
2022/08/16 07:50:45;;;;;;;14.88;13.45;;;;;;;23.08;58.28;94545.97;5044435;28;20226;-62
2022/08/16 07:53:12;;;;;;;16.10;14.63;;;;;;;23.07;57.72;94550.50;5038575;28;20590;-63
2022/08/16 07:55:37;;;;;;;16.05;14.43;;;;;;;22.96;57.28;94548.72;5042049;28;20530;-63
2022/08/16 07:58:03;;;;;;;16.17;14.70;;;;;;;23.15;56.65;94546.63;5034915;28;20617;-65
2022/08/16 08:00:30;;;;;;;14.48;13.18;;;;;;;23.29;56.76;94547.94;5033795;28;20221;-64
2022/08/16 08:02:56;;;;;;;15.35;14.05;;;;;;;23.49;56.39;94554.69;5034680;28;20229;-63
2022/08/16 08:05:23;;;;;;;14.82;13.50;;;;;;;23.50;56.76;94553.66;5042088;28;20213;-61
2022/08/16 08:07:48;;;;;;;16.15;14.45;;;;;;;23.58;56.16;94555.94;5037301;28;20754;-62
2022/08/16 08:10:15;;;;;;;14.45;13.25;;;;;;;23.60;55.96;94561.03;5044785;28;20218;-62
2022/08/16 08:12:42;;;;;;;14.32;13.13;;;;;;;23.64;56.02;94554.94;5037333;28;20228;-63
2022/08/16 08:15:10;;;;;;;15.00;13.60;;;;;;;23.87;56.48;94548.63;5032243;28;20228;-64
2022/08/16 08:17:38;;;;;;;16.17;13.18;;;;;;;23.91;56.05;94551.63;5040875;28;20222;-63
2022/08/16 08:20:06;;;;;;;14.32;13.02;;;;;;;23.91;55.91;94548.94;5034110;28;20308;-61
2022/08/16 08:22:32;;;;;;;14.77;13.30;;;;;;;23.99;55.94;94556.59;5036868;28;20290;-61
2022/08/16 08:24:57;;;;;;;14.07;12.73;;;;;;;24.05;55.20;94546.72;5039814;28;20301;-62
2022/08/16 08:27:23;;;;;;;13.60;12.23;;;;;;;24.09;55.09;94546.00;5033679;28;20221;-62
2022/08/16 08:29:49;;;;;;;14.35;12.85;;;;;;;24.16;54.17;94552.00;5036777;28;20231;-62
2022/08/16 08:32:14;;;;;;;14.20;12.75;;;;;;;24.15;54.62;94554.94;5037963;28;20201;-61
2022/08/16 08:34:40;;;;;;;16.40;12.80;;;;;;;24.27;53.81;94546.75;5032838;28;20292;-62
2022/08/16 08:37:06;;;;;;;13.07;11.88;;;;;;;24.36;53.52;94553.34;5034968;28;20222;-61
2022/08/16 08:39:33;;;;;;;14.88;13.38;;;;;;;24.50;53.24;94549.22;5034217;28;20754;-62
2022/08/16 08:42:00;;;;;;;14.18;12.88;;;;;;;24.66;52.48;94552.91;5035352;28;20293;-63
2022/08/16 08:44:26;;;;;;;13.00;11.75;;;;;;;24.67;51.97;94546.47;5040052;28;20198;-62
2022/08/16 08:46:56;;;;;;;11.30;10.32;;;;;;;24.89;50.46;94549.16;5033321;28;20205;-63
2022/08/16 08:49:21;;;;;;;12.10;9.80;;;;;;;25.15;50.07;94546.72;5036216;28;20221;-62
2022/08/16 08:51:47;;;;;;;11.32;10.30;;;;;;;25.21;49.46;94543.88;5040440;28;20226;-61
2022/08/16 08:54:13;;;;;;;12.13;10.90;;;;;;;25.35;49.13;94543.47;5033418;28;20232;-61
2022/08/16 08:56:40;;;;;;;11.45;10.32;;;;;;;25.61;48.59;94544.47;5032828;28;20230;-61
2022/08/16 08:59:06;;;;;;;9.90;8.90;;;;;;;25.85;47.10;94540.41;5042662;28;20222;-62
2022/08/16 09:01:34;;;;;;;8.48;7.85;;;;;;;25.94;45.98;94546.91;5039207;28;20253;-62
2022/08/16 09:04:01;;;;;;;9.18;7.32;;;;;;;26.05;45.00;94537.00;5031107;28;20218;-61
2022/08/16 09:06:27;;;;;;;8.77;7.90;;;;;;;26.23;43.89;94546.56;5029070;28;20226;-61
2022/08/16 09:08:52;;;;;;;7.30;6.70;;;;;;;26.21;42.93;94540.59;5035464;28;20210;-61
2022/08/16 09:11:18;;;;;;;6.78;6.25;;;;;;;26.28;41.93;94532.31;5035192;28;20225;-62
2022/08/16 09:13:43;;;;;;;6.82;6.03;;;;;;;26.36;41.65;94542.59;5038639;28;20692;-63
2022/08/16 09:16:09;;;;;;;6.18;5.57;;;;;;;26.46;40.71;94537.22;5038581;28;20241;-61
2022/08/16 09:18:34;;;;;;;6.35;5.75;;;;;;;26.61;39.98;94541.91;5036835;28;20237;-62
2022/08/16 09:21:00;;;;;;;6.75;6.13;;;;;;;26.76;38.89;94549.25;5038944;28;20268;-62
2022/08/16 09:23:30;;;;;;;6.90;6.30;;;;;;;26.73;39.10;94556.00;5034292;28;20205;-62
2022/08/16 09:25:56;;;;;;;7.32;6.63;;;;;;;26.69;39.12;94552.19;5034078;28;20727;-61
2022/08/16 09:28:21;;;;;;;6.85;6.35;;;;;;;26.75;39.69;94558.41;5036164;28;20572;-61
2022/08/16 09:30:47;;;;;;;6.55;5.95;;;;;;;26.83;38.79;94556.00;5032518;28;20225;-61
2022/08/16 09:33:17;;;;;;;7.90;6.50;;;;;;;27.09;38.71;94548.00;5035940;28;20213;-61
2022/08/16 09:35:44;;;;;;;6.75;6.25;;;;;;;27.17;38.94;94544.00;5036758;28;20227;-61
2022/08/16 09:38:12;;;;;;;6.85;6.25;;;;;;;27.15;38.31;94541.53;5032379;28;20770;-62
2022/08/16 09:40:43;;;;;;;6.72;6.15;;;;;;;27.13;39.04;94542.88;5034620;28;20236;-62
2022/08/16 09:43:15;;;;;;;7.28;6.57;;;;;;;27.34;38.76;94539.16;5043325;28;20233;-61
2022/08/16 09:45:42;;;;;;;7.00;6.40;;;;;;;27.49;37.89;94535.66;5043092;28;20225;-61
2022/08/16 09:48:10;;;;;;;6.63;6.05;;;;;;;27.73;37.06;94540.53;5034325;28;20244;-61
2022/08/16 09:50:36;;;;;;;7.53;6.40;;;;;;;27.80;36.98;94535.66;5039853;28;20299;-61
2022/08/16 09:53:04;;;;;;;7.70;6.85;;;;;;;27.87;36.66;94536.22;5036590;28;20213;-61
2022/08/16 09:55:30;;;;;;;7.22;6.68;;;;;;;27.85;37.07;94538.38;5041387;28;20283;-61
2022/08/16 09:57:56;;;;;;;7.97;7.18;;;;;;;28.04;36.84;94539.47;5033229;28;20229;-60
2022/08/16 10:00:23;;;;;;;6.85;6.35;;;;;;;28.33;36.25;94536.13;5039193;28;20279;-62
2022/08/16 10:02:51;;;;;;;6.97;6.38;;;;;;;28.49;36.44;94531.53;5035516;28;20225;-61
2022/08/16 10:05:17;;;;;;;7.05;6.43;;;;;;;28.21;36.20;94535.66;5034600;28;20205;-61
2022/08/16 10:07:44;;;;;;;6.10;5.60;;;;;;;27.98;35.93;94540.53;5038296;28;20205;-61
2022/08/16 10:10:09;;;;;;;6.70;6.22;;;;;;;27.80;36.45;94538.34;5045725;28;20218;-61
2022/08/16 10:15:19;;;;;;;7.43;6.82;;;;;;;27.63;37.29;94542.13;5038590;28;20239;-61
2022/08/16 10:17:48;;;;;;;5.95;5.50;;;;;;;27.69;35.70;94530.28;5033227;28;20290;-62
2022/08/16 10:20:14;;;;;;;6.55;5.97;;;;;;;27.83;35.80;94533.28;5035010;28;20213;-62
2022/08/16 10:22:40;;;;;;;7.13;6.45;;;;;;;28.14;36.47;94535.91;5037546;28;20206;-61
2022/08/16 10:25:06;;;;;;;6.55;6.07;;;;;;;28.37;35.81;94531.81;5040808;28;20222;-61
2022/08/16 10:27:34;;;;;;;6.60;6.00;;;;;;;28.34;35.10;94527.75;5042697;28;20213;-62
2022/08/16 10:30:01;;;;;;;7.03;6.13;;;;;;;28.57;34.78;94523.66;5045382;28;20221;-62
2022/08/16 10:32:26;;;;;;;6.50;6.00;;;;;;;28.57;34.55;94531.78;5041153;28;20213;-62
2022/08/16 10:34:52;;;;;;;6.63;6.03;;;;;;;28.89;35.17;94529.72;5040318;28;20202;-63
2022/08/16 10:37:17;;;;;;;7.57;6.15;;;;;;;29.04;33.42;94526.97;5043162;28;20226;-63
2022/08/16 10:39:43;;;;;;;6.07;5.47;;;;;;;29.30;32.01;94524.09;5036025;28;20615;-61
2022/08/16 10:42:10;;;;;;;6.68;6.00;;;;;;;29.59;32.08;94526.88;5040308;28;20265;-63
2022/08/16 10:44:36;;;;;;;6.65;6.03;;;;;;;29.77;32.02;94531.63;5040616;28;20226;-62
2022/08/16 10:47:01;;;;;;;6.47;5.88;;;;;;;29.68;33.33;94525.22;5045854;28;20213;-61
2022/08/16 10:49:26;;;;;;;6.35;5.85;;;;;;;29.51;33.20;94530.19;5040547;28;20220;-61
2022/08/16 10:51:54;;;;;;;6.53;5.80;;;;;;;29.14;34.26;94531.53;5039479;28;20446;-62
2022/08/16 10:54:20;;;;;;;6.78;6.25;;;;;;;28.93;34.80;94541.63;5040483;28;20224;-62
2022/08/16 10:56:45;;;;;;;7.05;6.05;;;;;;;28.73;36.72;94534.41;5037777;28;20213;-62
2022/08/16 10:59:11;;;;;;;8.57;6.63;;;;;;;28.56;37.15;94532.84;5040832;28;20681;-60
2022/08/16 11:01:36;;;;;;;8.95;6.28;;;;;;;28.63;36.96;94531.72;5037909;28;20850;-60
2022/08/16 11:04:02;;;;;;;7.25;6.55;;;;;;;28.88;37.07;94536.25;5042007;28;20253;-62
2022/08/16 11:06:28;;;;;;;6.47;5.88;;;;;;;29.23;35.24;94538.75;5039812;28;20313;-62
2022/08/16 11:08:55;;;;;;;6.50;5.90;;;;;;;29.64;35.04;94535.81;5039785;28;20226;-61
2022/08/16 11:11:21;;;;;;;6.00;5.50;;;;;;;29.86;33.09;94538.06;5039374;28;20213;-61
2022/08/16 11:13:47;;;;;;;6.45;5.82;;;;;;;30.23;33.58;94536.66;5039938;28;20198;-61
2022/08/16 11:16:13;;;;;;;5.65;5.15;;;;;;;30.47;31.34;94530.44;5038586;28;20229;-61
2022/08/16 11:18:39;;;;;;;7.57;6.45;;;;;;;30.83;31.84;94539.00;5036451;28;20222;-61
2022/08/16 11:21:06;;;;;;;7.15;5.50;;;;;;;31.01;29.11;94523.00;5052284;28;20268;-62